createdAt,value
2023-04-08T00:00:43.798Z,101569.09
2023-04-08T00:05:45.956Z,101563.66
2023-04-08T00:10:47.628Z,101559.38
2023-04-08T00:15:50.680Z,101564.06
2023-04-08T00:20:52.367Z,101567.41
2023-04-08T00:25:54.028Z,101558.31
2023-04-08T00:30:57.402Z,101564.47
2023-04-08T00:35:59.149Z,101571.31
2023-04-08T00:41:01.072Z,101573.81
2023-04-08T00:46:04.103Z,101572.94
2023-04-08T00:51:06.020Z,101566.19
2023-04-08T00:56:07.802Z,101552.53
2023-04-08T01:01:12.523Z,101545.50
2023-04-08T01:06:18.266Z,101539.91
2023-04-08T01:11:20.045Z,101534.31
2023-04-08T01:16:23.235Z,101532.69
2023-04-08T01:21:25.634Z,101527.59
2023-04-08T01:26:28.791Z,101530.50
2023-04-08T01:31:31.749Z,101535.69
2023-04-08T01:36:33.705Z,101544.97
2023-04-08T01:41:36.742Z,101547.06
2023-04-08T01:46:38.461Z,101553.63
2023-04-08T01:51:40.156Z,101550.13
2023-04-08T01:56:43.187Z,101545.53
2023-04-08T02:01:45.027Z,101551.50
2023-04-08T02:06:46.810Z,101549.75
2023-04-08T02:11:50.018Z,101547.34
2023-04-08T02:16:53.662Z,101551.22
2023-04-08T02:21:58.041Z,101548.41
2023-04-08T02:27:01.859Z,101549.13
2023-04-08T02:32:03.798Z,101549.47
2023-04-08T02:37:05.668Z,101551.97
2023-04-08T02:42:10.776Z,101571.00
2023-04-08T02:47:13.537Z,101565.56
2023-04-08T02:52:15.415Z,101566.25
2023-04-08T02:57:18.521Z,101569.00
2023-04-08T03:02:20.239Z,101569.09
2023-04-08T03:07:22.059Z,101569.97
2023-04-08T03:12:26.969Z,101574.25
2023-04-08T03:17:28.789Z,101576.66
2023-04-08T03:22:30.678Z,101578.38
2023-04-08T03:27:33.692Z,101579.41
2023-04-08T03:32:35.397Z,101577.81
2023-04-08T03:37:37.149Z,101580.38
2023-04-08T03:42:40.314Z,101582.91
2023-04-08T03:47:42.029Z,101579.47
2023-04-08T03:52:43.851Z,101580.41
2023-04-08T03:57:47.216Z,101585.38
2023-04-08T04:02:49.082Z,101590.66
2023-04-08T04:07:51.072Z,101597.50
2023-04-08T04:12:54.152Z,101592.81
2023-04-08T04:17:55.835Z,101606.06
2023-04-08T04:22:57.619Z,101609.44
2023-04-08T04:28:01.721Z,101617.34
2023-04-08T04:33:03.667Z,101619.16
2023-04-08T04:38:10.522Z,101628.44
2023-04-08T04:43:13.526Z,101633.84
2023-04-08T04:48:15.440Z,101624.19
2023-04-08T04:53:17.112Z,101625.88
2023-04-08T04:58:20.292Z,101631.91
2023-04-08T05:03:22.116Z,101639.56
2023-04-08T05:08:24.973Z,101651.63
2023-04-08T05:13:29.581Z,101654.69
2023-04-08T05:18:31.223Z,101654.78
2023-04-08T05:23:32.940Z,101647.97
2023-04-08T05:28:36.075Z,101657.59
2023-04-08T05:33:37.816Z,101664.25
2023-04-08T05:38:39.643Z,101665.38
2023-04-08T05:43:42.728Z,101670.69
2023-04-08T05:48:44.479Z,101677.44
2023-04-08T05:53:47.027Z,101681.00
2023-04-08T05:58:50.767Z,101692.44
2023-04-08T06:03:52.969Z,101693.44
2023-04-08T06:08:54.907Z,101688.88
2023-04-08T06:13:57.947Z,101702.72
2023-04-08T06:18:59.594Z,101708.84
2023-04-08T06:24:01.392Z,101712.19
2023-04-08T06:29:05.004Z,101717.69
2023-04-08T06:34:06.920Z,101721.88
2023-04-08T06:39:08.709Z,101728.22
2023-04-08T06:44:11.677Z,101719.03
2023-04-08T06:49:13.326Z,101723.44
2023-04-08T06:54:15.010Z,101732.94
2023-04-08T06:59:18.048Z,101735.75
2023-04-08T07:04:19.912Z,101730.81
2023-04-08T07:09:21.658Z,101735.19
2023-04-08T07:14:24.684Z,101744.00
2023-04-08T07:19:26.924Z,101753.06
2023-04-08T07:24:28.574Z,101759.06
2023-04-08T07:29:31.565Z,101751.34
2023-04-08T07:34:34.681Z,101759.31
2023-04-08T07:39:36.401Z,101766.19
2023-04-08T07:44:39.453Z,101770.47
2023-04-08T07:49:41.182Z,101768.34
2023-04-08T07:54:42.859Z,101763.50
2023-04-08T07:59:45.907Z,101766.59
2023-04-08T08:04:47.633Z,101781.38
2023-04-08T08:09:49.329Z,101778.59
2023-04-08T08:14:54.700Z,101785.75
2023-04-08T08:19:56.384Z,101786.13
2023-04-08T08:24:58.066Z,101793.72
2023-04-08T08:30:01.204Z,101811.38
2023-04-08T08:35:03.034Z,101813.75
2023-04-08T08:40:05.821Z,101818.31
2023-04-08T08:45:09.923Z,101824.41
2023-04-08T08:50:11.825Z,101821.47
2023-04-08T08:55:32.476Z,101820.94
2023-04-08T09:00:38.002Z,101819.09
2023-04-08T09:05:47.382Z,101821.63
2023-04-08T09:10:49.144Z,101834.78
2023-04-08T09:16:03.423Z,101837.34
2023-04-08T09:21:05.907Z,101836.03
2023-04-08T09:26:08.756Z,101845.25
2023-04-08T09:31:21.631Z,101856.09
2023-04-08T09:36:23.588Z,101856.41
2023-04-08T09:41:25.470Z,101865.38
2023-04-08T09:46:32.011Z,101873.41
2023-04-08T09:51:36.873Z,101867.31
2023-04-08T09:56:41.354Z,101868.66
2023-04-08T10:01:47.292Z,101867.31
2023-04-08T10:06:51.452Z,101868.91
2023-04-08T10:11:53.680Z,101876.88
2023-04-08T10:17:28.510Z,101878.09
2023-04-08T10:22:49.979Z,101875.75
2023-04-08T10:27:51.653Z,101876.25
2023-04-08T10:32:53.560Z,101872.94
2023-04-08T10:37:56.657Z,101881.72
2023-04-08T10:42:58.319Z,101881.75
2023-04-08T10:48:12.032Z,101899.75
2023-04-08T10:53:15.063Z,101907.38
2023-04-08T10:58:16.852Z,101898.69
2023-04-08T11:03:19.358Z,101903.13
2023-04-08T11:08:27.403Z,101899.69
2023-04-08T11:13:29.257Z,101898.91
2023-04-08T11:18:31.124Z,101900.91
2023-04-08T11:23:34.140Z,101905.28
2023-04-08T11:28:35.820Z,101891.38
2023-04-08T11:33:38.821Z,101892.88
2023-04-08T11:38:42.220Z,101898.16
2023-04-08T11:43:54.495Z,101894.13
2023-04-08T11:49:14.397Z,101898.00
2023-04-08T11:54:27.569Z,101896.47
2023-04-08T11:59:29.769Z,101896.66
2023-04-08T12:04:32.193Z,101897.78
2023-04-08T12:09:35.330Z,101896.63
2023-04-08T12:14:36.971Z,101897.03
2023-04-08T12:19:38.735Z,101897.25
2023-04-08T12:24:41.718Z,101899.16
2023-04-08T12:29:43.466Z,101908.56
2023-04-08T12:34:45.326Z,101909.44
2023-04-08T12:39:48.339Z,101899.09
2023-04-08T12:44:49.990Z,101900.06
2023-04-08T12:49:51.636Z,101902.16
2023-04-08T12:54:54.671Z,101902.13
2023-04-08T12:59:56.785Z,101906.66
2023-04-08T13:04:58.468Z,101899.81
2023-04-08T13:10:01.516Z,101904.13
2023-04-08T13:15:03.715Z,101907.34
2023-04-08T13:20:08.481Z,101904.03
2023-04-08T13:25:11.743Z,101900.91
2023-04-08T13:30:13.449Z,101896.59
2023-04-08T13:35:15.148Z,101898.34
2023-04-08T13:40:18.230Z,101907.06
2023-04-08T13:45:20.515Z,101912.22
2023-04-08T13:50:22.272Z,101909.63
2023-04-08T13:55:25.325Z,101908.75
2023-04-08T14:00:27.188Z,101907.94
2023-04-08T14:05:28.849Z,101908.13
2023-04-08T14:10:31.891Z,101908.09
2023-04-08T14:15:33.580Z,101910.69
2023-04-08T14:20:35.835Z,101913.13
2023-04-08T14:25:38.843Z,101909.69
2023-04-08T14:30:40.565Z,101910.53
2023-04-08T14:35:42.297Z,101912.25
2023-04-08T14:40:45.506Z,101909.53
2023-04-08T14:45:47.218Z,101913.91
2023-04-08T14:50:48.900Z,101915.72
2023-04-08T14:55:52.086Z,101913.13
2023-04-08T15:00:53.869Z,101917.31
2023-04-08T15:05:58.598Z,101911.22
2023-04-08T15:11:01.644Z,101920.84
2023-04-08T15:16:03.420Z,101919.94
2023-04-08T15:21:05.541Z,101929.31
2023-04-08T15:26:08.660Z,101927.53
2023-04-08T15:31:10.395Z,101931.69
2023-04-08T15:36:12.136Z,101935.03
2023-04-08T15:41:18.520Z,101934.13
2023-04-08T15:46:20.360Z,101936.44
2023-04-08T15:51:22.228Z,101944.28
2023-04-08T15:56:26.954Z,101952.97
2023-04-08T16:01:28.744Z,101951.97
2023-04-08T16:06:30.480Z,101955.50
2023-04-08T16:11:34.696Z,101956.28
2023-04-08T16:16:38.542Z,101960.56
2023-04-08T16:21:40.573Z,101957.94
2023-04-08T16:26:43.782Z,101965.66
2023-04-08T16:31:45.614Z,101964.59
2023-04-08T16:36:47.720Z,101969.88
2023-04-08T16:41:51.392Z,101971.56
2023-04-08T16:46:53.120Z,101971.53
2023-04-08T16:51:54.816Z,101972.78
2023-04-08T16:56:58.054Z,101980.59
2023-04-08T17:01:59.790Z,101970.19
2023-04-08T17:07:01.653Z,101977.06
2023-04-08T17:12:04.801Z,101990.56
2023-04-08T17:17:06.613Z,101987.81
2023-04-08T17:22:08.329Z,101990.31
2023-04-08T17:27:11.729Z,101987.47
2023-04-08T17:32:13.647Z,101996.22
2023-04-08T17:37:15.417Z,102003.09
2023-04-08T17:42:22.273Z,102001.34
2023-04-08T17:47:24.164Z,102000.53
2023-04-08T17:52:25.990Z,102009.16
2023-04-08T17:57:30.319Z,102013.81
2023-04-08T18:02:36.849Z,102012.50
2023-04-08T18:07:38.825Z,102016.59
2023-04-08T18:12:41.864Z,102019.69
2023-04-08T18:17:43.562Z,102022.06
2023-04-08T18:22:45.882Z,102021.16
2023-04-08T18:27:48.930Z,102025.69
2023-04-08T18:32:50.965Z,102030.09
2023-04-08T18:37:52.739Z,102033.72
2023-04-08T18:42:55.838Z,102045.84
2023-04-08T18:47:57.580Z,102048.00
2023-04-08T18:53:00.839Z,102045.47
2023-04-08T18:58:03.866Z,102054.38
2023-04-08T19:03:06.920Z,102050.91
2023-04-08T19:08:10.474Z,102052.78
2023-04-08T19:13:13.492Z,102050.28
2023-04-08T19:18:15.443Z,102052.88
2023-04-08T19:23:18.764Z,102051.13
2023-04-08T19:28:21.818Z,102054.59
2023-04-08T19:33:23.560Z,102052.56
2023-04-08T19:38:25.321Z,102048.97
2023-04-08T19:43:30.069Z,102047.94
2023-04-08T19:48:33.977Z,102043.13
2023-04-08T19:53:35.736Z,102045.97
2023-04-08T19:58:38.844Z,102043.16
2023-04-08T20:03:42.273Z,102043.69
2023-04-08T20:08:44.180Z,102044.41
2023-04-08T20:13:47.622Z,102053.63
2023-04-08T20:18:49.468Z,102049.00
2023-04-08T20:23:51.903Z,102059.47
2023-04-08T20:28:57.906Z,102061.59
2023-04-08T20:34:00.549Z,102070.81
2023-04-08T20:39:02.440Z,102070.00
2023-04-08T20:44:06.936Z,102067.47
2023-04-08T20:49:08.821Z,102056.28
2023-04-08T20:54:10.617Z,102061.38
2023-04-08T20:59:13.735Z,102070.75
2023-04-08T21:04:16.661Z,102066.03
2023-04-08T21:09:18.388Z,102070.25
2023-04-08T21:14:21.651Z,102064.97
2023-04-08T21:19:23.696Z,102068.44
2023-04-08T21:24:25.436Z,102067.22
2023-04-08T21:29:28.504Z,102076.16
2023-04-08T21:34:31.000Z,102076.81
2023-04-08T21:39:32.681Z,102075.09
2023-04-08T21:44:36.332Z,102077.81
2023-04-08T21:49:38.084Z,102075.72
2023-04-08T21:54:39.949Z,102075.34
2023-04-08T21:59:42.994Z,102086.88
2023-04-08T22:04:45.142Z,102084.38
2023-04-08T22:09:47.429Z,102084.13
2023-04-08T22:14:50.569Z,102084.13
2023-04-08T22:19:52.313Z,102077.81
2023-04-08T22:24:54.059Z,102088.34
2023-04-08T22:29:57.158Z,102077.25
2023-04-08T22:34:58.974Z,102084.97
2023-04-08T22:40:01.843Z,102091.56
2023-04-08T22:45:06.219Z,102089.72
2023-04-08T22:50:08.714Z,102084.53
2023-04-08T22:55:10.616Z,102091.38
2023-04-08T23:00:14.543Z,102090.16
2023-04-08T23:05:16.445Z,102088.34
2023-04-08T23:10:18.786Z,102095.34
2023-04-08T23:15:22.428Z,102101.13
2023-04-08T23:20:24.282Z,102094.41
2023-04-08T23:25:26.068Z,102096.00
2023-04-08T23:30:29.187Z,102089.91
2023-04-08T23:35:31.022Z,102090.22
2023-04-08T23:40:32.772Z,102087.78
2023-04-08T23:45:35.816Z,102083.06
2023-04-08T23:50:37.637Z,102080.47
2023-04-08T23:55:39.363Z,102084.03
